WFLO2: Webbers Falls Lock & Dam & Reservoir (L&D 16)

Data processed at Tue Dec 10 2019 23:55


All information presented herein is the property of the government of the United States of America and may be revised or deleted at any time without prior notice.
Dissemination of this information without the expressed written consent of the Public Affairs Office, Tulsa District U.S. Army Corps of Engineers is strictly prohibited.
These data are gathered electronically and, as presented, have not undergone any form of quality control. These data are not guaranteed to be valid or correct.
Go to home page.
Go to station list.
Go to home page.

Upstream stations:

Downstream station:
Previous Day
Next Day
Current Day
    
SHEF ID:       WFLO2     Webbers Falls LD16
STATION TYPE:  NAVIGATION LOCK
Navigation Pool:  Bottom =   487.00, Top =   490.00

               PRECIP ELEVATION   STORAGE   TW-ELEV    INFLOW   RELEASE  AIR-TEMP  WIND-DIRWIND-SPEED REL-HUMID SOLAR-RAD   VOLTAGE  BAT-LOAD
                   in        ft     ac-ft        ft       cfs       cfs         F       deg       mph         %      W/m2      volt      volt
              Ccp-Rev   Ccp-Rev   Ccp-Rev   Ccp-Rev  Rev-Regi  Rev-Regi   Ccp-Rev   Ccp-Rev   Ccp-Rev   Ccp-Rev   Ccp-Rev   Ccp-Rev   Ccp-Rev
(US/Central)
12/10 00:00      0.00    490.32    173982    460.88     11312     19719     33.06    357.20      9.50     51.01      0.00     13.23     12.97
12/10 01:00      0.00    490.25    173132    460.82     11418     20050     31.91      2.40      8.10     51.85      0.00     13.23     12.97
12/10 02:00      0.00    490.21    172647    460.89     10644     19650     30.94    354.70      8.50     52.87      0.00     13.23     12.97
12/10 03:00      0.00    490.15    171919    460.90     11217     19650     30.07    349.80      8.00     55.45      0.00     13.23     12.97
12/10 04:00      0.00    490.07    170949    460.91     11527     19650     29.39    355.00      6.70     56.96      0.00     13.23     12.97
12/10 05:00      0.00    490.03    170464    460.92     11132     19650     28.72      3.90      5.10     56.02      0.00     13.23     12.97
12/10 06:00      0.00    489.97    169776    460.88     11324     19650     28.45    355.60      4.50     55.97      0.00     13.23     12.97
12/10 07:00      0.00    489.91    169127    460.98     14195     19650     28.44    357.20      3.30     57.96      0.00     13.23     12.97
12/10 08:00      0.00    489.85    168479    460.91     14899     19650     28.49    348.90      3.00     59.04      0.00     13.22     12.97
12/10 09:00      0.00    489.87    168695    460.62     14342     19650     28.71    348.20      4.40     58.14     44.10     13.23     12.97
12/10 10:00      0.00    489.93    169344    460.49     15712      9450     29.59    340.00      5.30     58.00     86.80     13.24     13.05
12/10 11:00      0.00    489.92    169235    460.42     15583      9850     30.92    345.70      5.70     56.56    172.90     13.20     12.97
12/10 12:00      0.00    489.99    169992    460.52     14498      9500     32.47    335.60      4.00     52.66    216.20     13.18     12.81
12/10 13:00      0.00    490.00    170100    460.51     14406      9850     34.54    348.30      2.40     48.85    296.90     13.24     13.05
12/10 14:00      0.00    490.05    170706    460.50     15772      9500     36.48    351.80      3.70     46.31    374.30     13.18     13.05
12/10 15:00      0.00    490.10    171313    460.40     14822      9500     38.43    341.90      2.90     36.76    314.60     13.23     12.97
12/10 16:00      0.00    490.14    171798    460.50     15958      9500     40.62    292.70      1.60     31.71    233.00     13.23     13.05
12/10 17:00      0.00    490.17    172162    460.49     15077      9500     41.18    283.10      0.60     31.19     49.60     13.22     12.97
12/10 18:00      0.00    490.22    172769    460.49     14490      9500     36.19     67.30      0.40     42.81      0.00     13.23     12.97
12/10 19:00      0.00    490.24    173011    460.17     14197      9500     30.33     47.80      1.10     51.12      0.00     13.23     12.97
12/10 20:00      0.00    490.27    173375    460.50     14490      9500     28.06     51.60      1.00     58.53      0.00     13.23     12.97
12/10 21:00      0.00    490.30    173739    460.51     14490      9500     26.92     59.30      1.20     61.79      0.00     13.22     12.97
12/10 22:00      0.00    490.34    174224    460.52     15077      9500     26.17     88.20      0.90     69.49      0.00     13.23     12.97
12/10 23:00      0.00    490.39    174831    460.52     15958      9500     25.88    118.70      1.70     75.66      0.00     13.23     12.97